sensor_id;sensor_type;location;lat;lon;timestamp;temperature;humidity
22130;DHT22;11231;50.746;4.272;2023-09-07T00:01:54;20.10;99.90
22130;DHT22;11231;50.746;4.272;2023-09-07T00:04:20;20.00;99.90
22130;DHT22;11231;50.746;4.272;2023-09-07T00:06:49;20.00;99.90
22130;DHT22;11231;50.746;4.272;2023-09-07T00:09:16;20.00;99.90
22130;DHT22;11231;50.746;4.272;2023-09-07T00:11:44;19.90;99.90
22130;DHT22;11231;50.746;4.272;2023-09-07T00:14:13;20.00;99.90
22130;DHT22;11231;50.746;4.272;2023-09-07T00:16:39;19.90;99.90
22130;DHT22;11231;50.746;4.272;2023-09-07T00:19:05;20.00;99.90
22130;DHT22;11231;50.746;4.272;2023-09-07T00:21:31;20.00;99.90
22130;DHT22;11231;50.746;4.272;2023-09-07T00:23:57;20.00;99.90
22130;DHT22;11231;50.746;4.272;2023-09-07T00:26:23;20.00;99.90
22130;DHT22;11231;50.746;4.272;2023-09-07T00:28:49;20.00;99.90
22130;DHT22;11231;50.746;4.272;2023-09-07T00:31:14;20.00;99.90
22130;DHT22;11231;50.746;4.272;2023-09-07T00:33:40;20.00;99.90
22130;DHT22;11231;50.746;4.272;2023-09-07T00:36:06;20.00;99.90
22130;DHT22;11231;50.746;4.272;2023-09-07T00:38:33;20.00;99.90
22130;DHT22;11231;50.746;4.272;2023-09-07T00:40:58;20.00;99.90
22130;DHT22;11231;50.746;4.272;2023-09-07T00:43:24;20.00;99.90
22130;DHT22;11231;50.746;4.272;2023-09-07T00:45:50;20.00;99.90
22130;DHT22;11231;50.746;4.272;2023-09-07T00:48:16;19.90;99.90
22130;DHT22;11231;50.746;4.272;2023-09-07T00:50:42;19.90;99.90
22130;DHT22;11231;50.746;4.272;2023-09-07T00:53:10;19.70;99.90
22130;DHT22;11231;50.746;4.272;2023-09-07T00:55:42;19.70;99.90
22130;DHT22;11231;50.746;4.272;2023-09-07T00:58:10;19.80;99.90
22130;DHT22;11231;50.746;4.272;2023-09-07T01:00:37;19.90;99.90
22130;DHT22;11231;50.746;4.272;2023-09-07T01:03:03;19.90;99.90
22130;DHT22;11231;50.746;4.272;2023-09-07T01:05:43;19.90;99.90
22130;DHT22;11231;50.746;4.272;2023-09-07T01:08:36;19.80;99.90
22130;DHT22;11231;50.746;4.272;2023-09-07T01:11:15;19.70;99.90
22130;DHT22;11231;50.746;4.272;2023-09-07T01:13:42;19.70;99.90
22130;DHT22;11231;50.746;4.272;2023-09-07T01:16:10;19.70;99.90
22130;DHT22;11231;50.746;4.272;2023-09-07T01:18:38;19.70;99.90
22130;DHT22;11231;50.746;4.272;2023-09-07T01:21:08;19.60;99.90
22130;DHT22;11231;50.746;4.272;2023-09-07T01:23:37;19.60;99.90
22130;DHT22;11231;50.746;4.272;2023-09-07T01:26:06;19.50;99.90
22130;DHT22;11231;50.746;4.272;2023-09-07T01:28:32;19.50;99.90
22130;DHT22;11231;50.746;4.272;2023-09-07T01:30:58;19.50;99.90
22130;DHT22;11231;50.746;4.272;2023-09-07T01:33:27;19.50;99.90
22130;DHT22;11231;50.746;4.272;2023-09-07T01:35:53;19.40;99.90
22130;DHT22;11231;50.746;4.272;2023-09-07T01:38:19;19.40;99.90
22130;DHT22;11231;50.746;4.272;2023-09-07T01:40:45;19.40;99.90
22130;DHT22;11231;50.746;4.272;2023-09-07T01:43:11;19.40;99.90
22130;DHT22;11231;50.746;4.272;2023-09-07T01:45:37;19.30;99.90
22130;DHT22;11231;50.746;4.272;2023-09-07T01:48:03;19.30;99.90
22130;DHT22;11231;50.746;4.272;2023-09-07T01:50:31;19.30;99.90
22130;DHT22;11231;50.746;4.272;2023-09-07T01:52:57;19.20;99.90
22130;DHT22;11231;50.746;4.272;2023-09-07T01:55:23;19.10;99.90
22130;DHT22;11231;50.746;4.272;2023-09-07T01:57:49;19.10;99.90
22130;DHT22;11231;50.746;4.272;2023-09-07T02:00:15;18.90;99.90
22130;DHT22;11231;50.746;4.272;2023-09-07T02:02:41;18.80;99.90
22130;DHT22;11231;50.746;4.272;2023-09-07T02:05:09;18.60;99.90
22130;DHT22;11231;50.746;4.272;2023-09-07T02:07:35;18.60;99.90
22130;DHT22;11231;50.746;4.272;2023-09-07T02:10:02;18.50;99.90
22130;DHT22;11231;50.746;4.272;2023-09-07T02:12:29;18.50;99.90
22130;DHT22;11231;50.746;4.272;2023-09-07T02:14:55;18.60;99.90
22130;DHT22;11231;50.746;4.272;2023-09-07T02:17:22;18.50;99.90
22130;DHT22;11231;50.746;4.272;2023-09-07T02:19:47;18.40;99.90
22130;DHT22;11231;50.746;4.272;2023-09-07T02:22:13;18.40;99.90
22130;DHT22;11231;50.746;4.272;2023-09-07T02:24:39;18.50;99.90
22130;DHT22;11231;50.746;4.272;2023-09-07T02:27:05;18.60;99.90
22130;DHT22;11231;50.746;4.272;2023-09-07T02:29:32;18.60;99.90
22130;DHT22;11231;50.746;4.272;2023-09-07T02:31:58;18.60;99.90
22130;DHT22;11231;50.746;4.272;2023-09-07T02:34:24;18.50;99.90
22130;DHT22;11231;50.746;4.272;2023-09-07T02:36:50;18.50;99.90
22130;DHT22;11231;50.746;4.272;2023-09-07T02:39:17;18.50;99.90
22130;DHT22;11231;50.746;4.272;2023-09-07T02:41:44;18.40;99.90
22130;DHT22;11231;50.746;4.272;2023-09-07T02:44:12;18.40;99.90
22130;DHT22;11231;50.746;4.272;2023-09-07T02:46:38;18.40;99.90
22130;DHT22;11231;50.746;4.272;2023-09-07T02:49:06;18.30;99.90
22130;DHT22;11231;50.746;4.272;2023-09-07T02:51:32;18.40;99.90
22130;DHT22;11231;50.746;4.272;2023-09-07T02:53:58;18.30;99.90
22130;DHT22;11231;50.746;4.272;2023-09-07T02:56:23;18.40;99.90
22130;DHT22;11231;50.746;4.272;2023-09-07T02:58:50;18.30;99.90
22130;DHT22;11231;50.746;4.272;2023-09-07T03:01:16;18.20;99.90
22130;DHT22;11231;50.746;4.272;2023-09-07T03:03:46;18.20;99.90
22130;DHT22;11231;50.746;4.272;2023-09-07T03:06:14;18.10;99.90
22130;DHT22;11231;50.746;4.272;2023-09-07T03:08:44;18.10;99.90
22130;DHT22;11231;50.746;4.272;2023-09-07T03:11:10;18.20;99.90
22130;DHT22;11231;50.746;4.272;2023-09-07T03:13:38;18.20;99.90
22130;DHT22;11231;50.746;4.272;2023-09-07T03:16:04;18.20;99.90
22130;DHT22;11231;50.746;4.272;2023-09-07T03:18:31;18.10;99.90
22130;DHT22;11231;50.746;4.272;2023-09-07T03:20:59;18.00;99.90
22130;DHT22;11231;50.746;4.272;2023-09-07T03:23:29;18.00;99.90
22130;DHT22;11231;50.746;4.272;2023-09-07T03:25:57;17.90;99.90
22130;DHT22;11231;50.746;4.272;2023-09-07T03:28:24;17.70;99.90
22130;DHT22;11231;50.746;4.272;2023-09-07T03:30:53;17.60;99.90
22130;DHT22;11231;50.746;4.272;2023-09-07T03:33:19;17.50;99.90
22130;DHT22;11231;50.746;4.272;2023-09-07T03:35:45;17.50;99.90
22130;DHT22;11231;50.746;4.272;2023-09-07T03:38:13;17.60;99.90
22130;DHT22;11231;50.746;4.272;2023-09-07T03:40:40;17.50;99.90
22130;DHT22;11231;50.746;4.272;2023-09-07T03:43:06;17.60;99.90
22130;DHT22;11231;50.746;4.272;2023-09-07T03:45:32;17.70;99.90
22130;DHT22;11231;50.746;4.272;2023-09-07T03:47:59;17.70;99.90
22130;DHT22;11231;50.746;4.272;2023-09-07T03:50:26;17.80;99.90
22130;DHT22;11231;50.746;4.272;2023-09-07T03:52:53;17.80;99.90
22130;DHT22;11231;50.746;4.272;2023-09-07T03:55:18;17.90;99.90
22130;DHT22;11231;50.746;4.272;2023-09-07T03:57:44;18.00;99.90
22130;DHT22;11231;50.746;4.272;2023-09-07T04:00:11;18.10;99.90
22130;DHT22;11231;50.746;4.272;2023-09-07T04:02:43;18.10;99.90
22130;DHT22;11231;50.746;4.272;2023-09-07T04:05:09;18.20;99.90
22130;DHT22;11231;50.746;4.272;2023-09-07T04:07:37;18.20;99.90
22130;DHT22;11231;50.746;4.272;2023-09-07T04:10:04;18.20;99.90
22130;DHT22;11231;50.746;4.272;2023-09-07T04:12:30;18.20;99.90
22130;DHT22;11231;50.746;4.272;2023-09-07T04:14:57;18.10;99.90
22130;DHT22;11231;50.746;4.272;2023-09-07T04:17:22;18.10;99.90
22130;DHT22;11231;50.746;4.272;2023-09-07T04:19:48;18.10;99.90
22130;DHT22;11231;50.746;4.272;2023-09-07T04:22:14;18.00;99.90
22130;DHT22;11231;50.746;4.272;2023-09-07T04:24:40;17.90;99.90
22130;DHT22;11231;50.746;4.272;2023-09-07T04:27:10;17.80;99.90
22130;DHT22;11231;50.746;4.272;2023-09-07T04:29:36;17.70;99.90
22130;DHT22;11231;50.746;4.272;2023-09-07T04:32:02;17.80;99.90
22130;DHT22;11231;50.746;4.272;2023-09-07T04:34:29;17.80;99.90
22130;DHT22;11231;50.746;4.272;2023-09-07T04:36:54;17.80;99.90
22130;DHT22;11231;50.746;4.272;2023-09-07T04:39:20;17.90;99.90
22130;DHT22;11231;50.746;4.272;2023-09-07T04:41:46;17.90;99.90
22130;DHT22;11231;50.746;4.272;2023-09-07T04:44:16;17.90;99.90
22130;DHT22;11231;50.746;4.272;2023-09-07T04:46:42;17.90;99.90
22130;DHT22;11231;50.746;4.272;2023-09-07T04:49:12;17.90;99.90
22130;DHT22;11231;50.746;4.272;2023-09-07T04:51:38;17.80;99.90
22130;DHT22;11231;50.746;4.272;2023-09-07T04:54:04;17.70;99.90
22130;DHT22;11231;50.746;4.272;2023-09-07T04:56:33;17.60;99.90
22130;DHT22;11231;50.746;4.272;2023-09-07T04:58:59;17.60;99.90
22130;DHT22;11231;50.746;4.272;2023-09-07T05:01:25;17.70;99.90
22130;DHT22;11231;50.746;4.272;2023-09-07T05:03:52;17.80;99.90
22130;DHT22;11231;50.746;4.272;2023-09-07T05:06:19;17.80;99.90
22130;DHT22;11231;50.746;4.272;2023-09-07T05:08:50;17.80;99.90
22130;DHT22;11231;50.746;4.272;2023-09-07T05:11:17;17.70;99.90
22130;DHT22;11231;50.746;4.272;2023-09-07T05:13:43;17.60;99.90
22130;DHT22;11231;50.746;4.272;2023-09-07T05:16:09;17.60;99.90
22130;DHT22;11231;50.746;4.272;2023-09-07T05:18:35;17.50;99.90
22130;DHT22;11231;50.746;4.272;2023-09-07T05:21:11;17.60;99.90
22130;DHT22;11231;50.746;4.272;2023-09-07T05:23:37;17.60;99.90
22130;DHT22;11231;50.746;4.272;2023-09-07T05:26:03;17.60;99.90
22130;DHT22;11231;50.746;4.272;2023-09-07T05:28:30;17.70;99.90
22130;DHT22;11231;50.746;4.272;2023-09-07T05:30:56;17.60;99.90
22130;DHT22;11231;50.746;4.272;2023-09-07T05:33:23;17.50;99.90
22130;DHT22;11231;50.746;4.272;2023-09-07T05:35:50;17.40;99.90
22130;DHT22;11231;50.746;4.272;2023-09-07T05:38:16;17.30;99.90
22130;DHT22;11231;50.746;4.272;2023-09-07T05:40:44;17.40;99.90
22130;DHT22;11231;50.746;4.272;2023-09-07T05:43:11;17.60;99.90
22130;DHT22;11231;50.746;4.272;2023-09-07T05:45:41;18.40;99.90
22130;DHT22;11231;50.746;4.272;2023-09-07T05:48:09;19.10;99.90
22130;DHT22;11231;50.746;4.272;2023-09-07T05:50:36;20.10;99.90
22130;DHT22;11231;50.746;4.272;2023-09-07T05:53:03;21.20;99.90
22130;DHT22;11231;50.746;4.272;2023-09-07T05:55:30;22.10;99.90
22130;DHT22;11231;50.746;4.272;2023-09-07T05:57:57;22.80;99.90
22130;DHT22;11231;50.746;4.272;2023-09-07T06:00:25;23.50;99.90
22130;DHT22;11231;50.746;4.272;2023-09-07T06:02:51;23.80;99.90
22130;DHT22;11231;50.746;4.272;2023-09-07T06:05:17;24.30;99.90
22130;DHT22;11231;50.746;4.272;2023-09-07T06:07:44;24.50;99.90
22130;DHT22;11231;50.746;4.272;2023-09-07T06:10:15;24.60;99.90
22130;DHT22;11231;50.746;4.272;2023-09-07T06:12:44;24.80;99.90
22130;DHT22;11231;50.746;4.272;2023-09-07T06:15:10;25.10;99.90
22130;DHT22;11231;50.746;4.272;2023-09-07T06:17:36;24.60;99.90
22130;DHT22;11231;50.746;4.272;2023-09-07T06:20:02;23.90;99.90
22130;DHT22;11231;50.746;4.272;2023-09-07T06:22:28;23.50;99.90
22130;DHT22;11231;50.746;4.272;2023-09-07T06:24:55;23.10;99.90
22130;DHT22;11231;50.746;4.272;2023-09-07T06:27:23;22.90;99.90
22130;DHT22;11231;50.746;4.272;2023-09-07T06:29:49;22.60;99.90
22130;DHT22;11231;50.746;4.272;2023-09-07T06:32:15;22.40;99.90
22130;DHT22;11231;50.746;4.272;2023-09-07T06:34:41;22.10;99.90
22130;DHT22;11231;50.746;4.272;2023-09-07T06:37:07;21.70;99.90
22130;DHT22;11231;50.746;4.272;2023-09-07T06:39:34;21.40;99.90
22130;DHT22;11231;50.746;4.272;2023-09-07T06:42:00;21.40;99.90
22130;DHT22;11231;50.746;4.272;2023-09-07T06:44:34;21.50;99.90
22130;DHT22;11231;50.746;4.272;2023-09-07T06:47:00;22.90;99.90
22130;DHT22;11231;50.746;4.272;2023-09-07T06:49:27;25.20;99.90
22130;DHT22;11231;50.746;4.272;2023-09-07T06:51:56;27.40;99.90
22130;DHT22;11231;50.746;4.272;2023-09-07T06:54:22;29.40;99.90
22130;DHT22;11231;50.746;4.272;2023-09-07T06:56:47;31.00;99.90
22130;DHT22;11231;50.746;4.272;2023-09-07T06:59:14;32.20;99.90
22130;DHT22;11231;50.746;4.272;2023-09-07T07:01:39;33.00;99.90
22130;DHT22;11231;50.746;4.272;2023-09-07T07:04:06;34.00;99.90
22130;DHT22;11231;50.746;4.272;2023-09-07T07:06:33;34.50;99.90
22130;DHT22;11231;50.746;4.272;2023-09-07T07:08:59;35.20;99.90
22130;DHT22;11231;50.746;4.272;2023-09-07T07:11:27;35.90;99.90
22130;DHT22;11231;50.746;4.272;2023-09-07T07:13:53;36.60;97.80
22130;DHT22;11231;50.746;4.272;2023-09-07T07:16:19;37.40;94.60
22130;DHT22;11231;50.746;4.272;2023-09-07T07:18:45;38.10;92.20
22130;DHT22;11231;50.746;4.272;2023-09-07T07:21:12;38.60;90.10
22130;DHT22;11231;50.746;4.272;2023-09-07T07:23:38;39.30;84.60
22130;DHT22;11231;50.746;4.272;2023-09-07T07:26:05;40.00;81.20
22130;DHT22;11231;50.746;4.272;2023-09-07T07:28:31;40.50;78.90
22130;DHT22;11231;50.746;4.272;2023-09-07T07:30:57;40.80;75.40
22130;DHT22;11231;50.746;4.272;2023-09-07T07:33:23;41.40;71.70
22130;DHT22;11231;50.746;4.272;2023-09-07T07:35:50;41.60;69.00
22130;DHT22;11231;50.746;4.272;2023-09-07T07:38:16;41.90;67.40
22130;DHT22;11231;50.746;4.272;2023-09-07T07:40:42;42.20;66.40
22130;DHT22;11231;50.746;4.272;2023-09-07T07:43:09;42.50;64.70
22130;DHT22;11231;50.746;4.272;2023-09-07T07:45:37;42.50;61.40
22130;DHT22;11231;50.746;4.272;2023-09-07T07:48:05;42.40;62.10
22130;DHT22;11231;50.746;4.272;2023-09-07T07:50:40;42.30;60.40
22130;DHT22;11231;50.746;4.272;2023-09-07T07:53:07;42.60;61.00
22130;DHT22;11231;50.746;4.272;2023-09-07T07:55:35;43.20;60.00
22130;DHT22;11231;50.746;4.272;2023-09-07T07:58:08;43.80;58.10
22130;DHT22;11231;50.746;4.272;2023-09-07T08:00:38;44.00;57.00
22130;DHT22;11231;50.746;4.272;2023-09-07T08:03:05;44.50;56.40
22130;DHT22;11231;50.746;4.272;2023-09-07T08:05:33;44.90;56.80
22130;DHT22;11231;50.746;4.272;2023-09-07T08:08:00;45.20;55.00
22130;DHT22;11231;50.746;4.272;2023-09-07T08:10:27;45.40;53.90
22130;DHT22;11231;50.746;4.272;2023-09-07T08:12:57;45.20;52.90
22130;DHT22;11231;50.746;4.272;2023-09-07T08:15:23;44.70;54.60
22130;DHT22;11231;50.746;4.272;2023-09-07T08:17:51;44.20;52.50
22130;DHT22;11231;50.746;4.272;2023-09-07T08:20:17;44.10;52.30
22130;DHT22;11231;50.746;4.272;2023-09-07T08:22:43;43.90;52.70
22130;DHT22;11231;50.746;4.272;2023-09-07T08:25:12;43.90;52.30
22130;DHT22;11231;50.746;4.272;2023-09-07T08:27:41;42.40;52.40
22130;DHT22;11231;50.746;4.272;2023-09-07T08:30:16;42.20;52.90
22130;DHT22;11231;50.746;4.272;2023-09-07T08:32:43;42.00;53.30
22130;DHT22;11231;50.746;4.272;2023-09-07T08:35:10;41.90;53.00
22130;DHT22;11231;50.746;4.272;2023-09-07T08:37:41;42.30;53.00
22130;DHT22;11231;50.746;4.272;2023-09-07T08:40:07;42.30;52.40
22130;DHT22;11231;50.746;4.272;2023-09-07T08:42:35;41.50;53.60
22130;DHT22;11231;50.746;4.272;2023-09-07T08:45:05;41.20;54.20
22130;DHT22;11231;50.746;4.272;2023-09-07T08:47:37;41.10;54.10
22130;DHT22;11231;50.746;4.272;2023-09-07T08:50:05;41.40;54.00
22130;DHT22;11231;50.746;4.272;2023-09-07T08:52:36;41.10;53.90
22130;DHT22;11231;50.746;4.272;2023-09-07T08:55:03;40.30;55.20
22130;DHT22;11231;50.746;4.272;2023-09-07T08:57:32;39.10;55.50
22130;DHT22;11231;50.746;4.272;2023-09-07T08:59:58;38.70;56.40
22130;DHT22;11231;50.746;4.272;2023-09-07T09:02:24;38.40;55.70
22130;DHT22;11231;50.746;4.272;2023-09-07T09:04:50;37.90;56.80
22130;DHT22;11231;50.746;4.272;2023-09-07T09:07:17;39.30;56.90
22130;DHT22;11231;50.746;4.272;2023-09-07T09:09:43;39.90;54.60
22130;DHT22;11231;50.746;4.272;2023-09-07T09:12:13;39.10;56.40
22130;DHT22;11231;50.746;4.272;2023-09-07T09:14:43;38.60;56.00
22130;DHT22;11231;50.746;4.272;2023-09-07T09:17:14;38.30;56.80
22130;DHT22;11231;50.746;4.272;2023-09-07T09:19:40;38.30;57.00
22130;DHT22;11231;50.746;4.272;2023-09-07T09:22:10;38.70;57.80
22130;DHT22;11231;50.746;4.272;2023-09-07T09:24:36;37.40;57.60
22130;DHT22;11231;50.746;4.272;2023-09-07T09:27:03;35.60;59.90
22130;DHT22;11231;50.746;4.272;2023-09-07T09:29:32;34.00;62.80
22130;DHT22;11231;50.746;4.272;2023-09-07T09:32:03;32.40;67.30
22130;DHT22;11231;50.746;4.272;2023-09-07T09:34:34;31.20;70.30
22130;DHT22;11231;50.746;4.272;2023-09-07T09:37:01;30.70;73.50
22130;DHT22;11231;50.746;4.272;2023-09-07T09:39:29;30.40;75.80
22130;DHT22;11231;50.746;4.272;2023-09-07T09:41:55;30.00;75.90
22130;DHT22;11231;50.746;4.272;2023-09-07T09:44:22;29.90;79.90
22130;DHT22;11231;50.746;4.272;2023-09-07T09:46:52;30.10;78.60
22130;DHT22;11231;50.746;4.272;2023-09-07T09:49:20;31.10;76.90
22130;DHT22;11231;50.746;4.272;2023-09-07T09:51:49;33.00;73.60
22130;DHT22;11231;50.746;4.272;2023-09-07T09:54:17;33.90;70.50
22130;DHT22;11231;50.746;4.272;2023-09-07T09:56:43;35.50;68.10
22130;DHT22;11231;50.746;4.272;2023-09-07T09:59:11;36.30;66.10
22130;DHT22;11231;50.746;4.272;2023-09-07T10:01:43;36.20;63.50
22130;DHT22;11231;50.746;4.272;2023-09-07T10:04:14;37.10;62.80
22130;DHT22;11231;50.746;4.272;2023-09-07T10:06:53;37.40;63.00
22130;DHT22;11231;50.746;4.272;2023-09-07T10:09:19;38.20;61.50
22130;DHT22;11231;50.746;4.272;2023-09-07T10:11:53;39.00;60.10
22130;DHT22;11231;50.746;4.272;2023-09-07T10:14:20;38.20;58.90
22130;DHT22;11231;50.746;4.272;2023-09-07T10:16:50;38.10;59.80
22130;DHT22;11231;50.746;4.272;2023-09-07T10:19:22;38.20;60.60
22130;DHT22;11231;50.746;4.272;2023-09-07T10:21:49;37.70;59.50
22130;DHT22;11231;50.746;4.272;2023-09-07T10:24:32;37.70;59.90
22130;DHT22;11231;50.746;4.272;2023-09-07T10:27:08;38.60;59.80
22130;DHT22;11231;50.746;4.272;2023-09-07T10:32:08;39.10;58.20
22130;DHT22;11231;50.746;4.272;2023-09-07T10:34:36;39.90;57.80
22130;DHT22;11231;50.746;4.272;2023-09-07T10:37:05;40.60;57.20
22130;DHT22;11231;50.746;4.272;2023-09-07T10:39:32;40.60;56.20
22130;DHT22;11231;50.746;4.272;2023-09-07T10:41:58;40.20;56.00
22130;DHT22;11231;50.746;4.272;2023-09-07T10:44:27;40.60;56.30
22130;DHT22;11231;50.746;4.272;2023-09-07T10:46:54;40.60;56.10
22130;DHT22;11231;50.746;4.272;2023-09-07T10:49:20;41.30;55.90
22130;DHT22;11231;50.746;4.272;2023-09-07T10:51:46;42.20;54.50
22130;DHT22;11231;50.746;4.272;2023-09-07T10:54:22;42.50;55.40
22130;DHT22;11231;50.746;4.272;2023-09-07T10:56:49;42.20;54.70
22130;DHT22;11231;50.746;4.272;2023-09-07T10:59:16;41.50;55.10
22130;DHT22;11231;50.746;4.272;2023-09-07T11:01:45;40.70;55.50
22130;DHT22;11231;50.746;4.272;2023-09-07T11:04:11;40.30;56.60
22130;DHT22;11231;50.746;4.272;2023-09-07T11:06:41;41.00;57.20
22130;DHT22;11231;50.746;4.272;2023-09-07T11:09:09;41.50;57.00
22130;DHT22;11231;50.746;4.272;2023-09-07T11:11:36;41.50;54.40
22130;DHT22;11231;50.746;4.272;2023-09-07T11:14:03;40.90;55.00
22130;DHT22;11231;50.746;4.272;2023-09-07T11:16:30;40.90;56.10
22130;DHT22;11231;50.746;4.272;2023-09-07T11:18:56;40.60;56.00
22130;DHT22;11231;50.746;4.272;2023-09-07T11:21:22;40.20;56.70
22130;DHT22;11231;50.746;4.272;2023-09-07T11:23:48;39.40;57.80
22130;DHT22;11231;50.746;4.272;2023-09-07T11:26:16;39.00;57.90
22130;DHT22;11231;50.746;4.272;2023-09-07T11:28:47;38.00;58.40
22130;DHT22;11231;50.746;4.272;2023-09-07T11:31:13;38.10;59.50
22130;DHT22;11231;50.746;4.272;2023-09-07T11:33:41;37.60;60.00
22130;DHT22;11231;50.746;4.272;2023-09-07T11:36:06;37.50;59.90
22130;DHT22;11231;50.746;4.272;2023-09-07T11:38:36;37.80;61.50
22130;DHT22;11231;50.746;4.272;2023-09-07T11:41:03;37.50;59.20
22130;DHT22;11231;50.746;4.272;2023-09-07T11:43:29;37.50;60.30
22130;DHT22;11231;50.746;4.272;2023-09-07T11:45:55;37.60;59.60
22130;DHT22;11231;50.746;4.272;2023-09-07T11:48:21;37.10;59.80
22130;DHT22;11231;50.746;4.272;2023-09-07T11:50:47;36.60;60.40
22130;DHT22;11231;50.746;4.272;2023-09-07T11:53:12;36.50;62.60
22130;DHT22;11231;50.746;4.272;2023-09-07T11:55:39;36.60;61.80
22130;DHT22;11231;50.746;4.272;2023-09-07T11:58:06;36.70;60.80
22130;DHT22;11231;50.746;4.272;2023-09-07T12:00:32;37.20;62.70
22130;DHT22;11231;50.746;4.272;2023-09-07T12:02:58;37.80;60.10
22130;DHT22;11231;50.746;4.272;2023-09-07T12:05:24;38.20;59.00
22130;DHT22;11231;50.746;4.272;2023-09-07T12:07:50;38.40;58.20
22130;DHT22;11231;50.746;4.272;2023-09-07T12:10:16;38.70;58.80
22130;DHT22;11231;50.746;4.272;2023-09-07T12:12:43;38.70;58.00
22130;DHT22;11231;50.746;4.272;2023-09-07T12:15:10;38.00;58.80
22130;DHT22;11231;50.746;4.272;2023-09-07T12:17:39;38.10;60.30
22130;DHT22;11231;50.746;4.272;2023-09-07T12:20:05;37.80;58.80
22130;DHT22;11231;50.746;4.272;2023-09-07T12:22:39;37.60;59.40
22130;DHT22;11231;50.746;4.272;2023-09-07T12:25:06;37.20;60.00
22130;DHT22;11231;50.746;4.272;2023-09-07T12:27:33;37.20;59.70
22130;DHT22;11231;50.746;4.272;2023-09-07T12:30:00;36.90;59.40
22130;DHT22;11231;50.746;4.272;2023-09-07T12:32:32;36.40;60.10
22130;DHT22;11231;50.746;4.272;2023-09-07T12:34:58;36.30;62.10
22130;DHT22;11231;50.746;4.272;2023-09-07T12:37:24;36.60;61.40
22130;DHT22;11231;50.746;4.272;2023-09-07T12:39:51;36.20;59.90
22130;DHT22;11231;50.746;4.272;2023-09-07T12:42:17;35.50;60.70
22130;DHT22;11231;50.746;4.272;2023-09-07T12:44:44;34.90;62.40
22130;DHT22;11231;50.746;4.272;2023-09-07T12:47:10;34.20;64.60
22130;DHT22;11231;50.746;4.272;2023-09-07T12:49:35;33.70;64.50
22130;DHT22;11231;50.746;4.272;2023-09-07T12:52:01;33.30;67.80
22130;DHT22;11231;50.746;4.272;2023-09-07T12:54:34;32.90;67.40
22130;DHT22;11231;50.746;4.272;2023-09-07T12:57:01;32.70;67.90
22130;DHT22;11231;50.746;4.272;2023-09-07T12:59:28;32.50;69.70
22130;DHT22;11231;50.746;4.272;2023-09-07T13:01:53;32.30;70.10
22130;DHT22;11231;50.746;4.272;2023-09-07T13:04:21;32.40;73.20
22130;DHT22;11231;50.746;4.272;2023-09-07T13:06:47;32.40;70.40
22130;DHT22;11231;50.746;4.272;2023-09-07T13:09:13;32.30;68.70
22130;DHT22;11231;50.746;4.272;2023-09-07T13:11:39;32.10;69.20
22130;DHT22;11231;50.746;4.272;2023-09-07T13:14:05;31.90;71.40
22130;DHT22;11231;50.746;4.272;2023-09-07T13:16:31;31.70;71.70
22130;DHT22;11231;50.746;4.272;2023-09-07T13:18:58;31.60;70.80
22130;DHT22;11231;50.746;4.272;2023-09-07T13:21:24;31.60;74.30
22130;DHT22;11231;50.746;4.272;2023-09-07T13:23:50;31.50;71.70
22130;DHT22;11231;50.746;4.272;2023-09-07T13:26:16;31.60;72.40
22130;DHT22;11231;50.746;4.272;2023-09-07T13:28:42;31.60;73.80
22130;DHT22;11231;50.746;4.272;2023-09-07T13:31:07;31.70;73.80
22130;DHT22;11231;50.746;4.272;2023-09-07T13:33:33;31.80;73.90
22130;DHT22;11231;50.746;4.272;2023-09-07T13:35:59;31.70;72.70
22130;DHT22;11231;50.746;4.272;2023-09-07T13:38:25;31.60;71.20
22130;DHT22;11231;50.746;4.272;2023-09-07T13:40:50;31.50;72.10
22130;DHT22;11231;50.746;4.272;2023-09-07T13:43:16;31.40;71.60
22130;DHT22;11231;50.746;4.272;2023-09-07T13:45:42;31.40;71.60
22130;DHT22;11231;50.746;4.272;2023-09-07T13:48:09;31.30;71.90
22130;DHT22;11231;50.746;4.272;2023-09-07T13:50:35;31.40;73.50
22130;DHT22;11231;50.746;4.272;2023-09-07T13:53:01;31.40;74.00
22130;DHT22;11231;50.746;4.272;2023-09-07T13:55:26;31.50;76.30
22130;DHT22;11231;50.746;4.272;2023-09-07T13:57:52;31.60;75.70
22130;DHT22;11231;50.746;4.272;2023-09-07T14:00:18;31.80;75.00
22130;DHT22;11231;50.746;4.272;2023-09-07T14:02:44;31.80;73.00
22130;DHT22;11231;50.746;4.272;2023-09-07T14:05:10;31.90;74.10
22130;DHT22;11231;50.746;4.272;2023-09-07T14:07:36;31.90;72.90
22130;DHT22;11231;50.746;4.272;2023-09-07T14:10:02;31.80;72.30
22130;DHT22;11231;50.746;4.272;2023-09-07T14:12:28;31.60;72.60
22130;DHT22;11231;50.746;4.272;2023-09-07T14:14:54;31.60;71.60
22130;DHT22;11231;50.746;4.272;2023-09-07T14:17:19;31.50;71.50
22130;DHT22;11231;50.746;4.272;2023-09-07T14:19:45;31.60;72.40
22130;DHT22;11231;50.746;4.272;2023-09-07T14:22:12;31.70;72.30
22130;DHT22;11231;50.746;4.272;2023-09-07T14:24:38;31.60;71.20
22130;DHT22;11231;50.746;4.272;2023-09-07T14:27:04;31.60;70.70
22130;DHT22;11231;50.746;4.272;2023-09-07T14:29:30;31.50;72.10
22130;DHT22;11231;50.746;4.272;2023-09-07T14:31:56;31.60;71.90
22130;DHT22;11231;50.746;4.272;2023-09-07T14:34:22;31.50;72.80
22130;DHT22;11231;50.746;4.272;2023-09-07T14:36:47;31.70;72.50
22130;DHT22;11231;50.746;4.272;2023-09-07T14:39:13;31.70;71.50
22130;DHT22;11231;50.746;4.272;2023-09-07T14:41:39;31.80;70.60
22130;DHT22;11231;50.746;4.272;2023-09-07T14:44:05;31.80;71.30
22130;DHT22;11231;50.746;4.272;2023-09-07T14:46:32;31.80;71.10
22130;DHT22;11231;50.746;4.272;2023-09-07T14:48:57;31.70;70.80
22130;DHT22;11231;50.746;4.272;2023-09-07T14:51:24;31.70;71.30
22130;DHT22;11231;50.746;4.272;2023-09-07T14:53:50;31.80;71.70
22130;DHT22;11231;50.746;4.272;2023-09-07T14:56:15;31.80;71.10
22130;DHT22;11231;50.746;4.272;2023-09-07T14:58:41;31.80;72.10
22130;DHT22;11231;50.746;4.272;2023-09-07T15:01:07;31.90;71.20
22130;DHT22;11231;50.746;4.272;2023-09-07T15:03:33;31.90;70.80
22130;DHT22;11231;50.746;4.272;2023-09-07T15:05:58;31.90;72.20
22130;DHT22;11231;50.746;4.272;2023-09-07T15:08:24;31.80;71.20
22130;DHT22;11231;50.746;4.272;2023-09-07T15:10:50;31.70;70.60
22130;DHT22;11231;50.746;4.272;2023-09-07T15:13:16;31.70;72.00
22130;DHT22;11231;50.746;4.272;2023-09-07T15:15:42;31.70;72.30
22130;DHT22;11231;50.746;4.272;2023-09-07T15:18:08;31.80;72.50
22130;DHT22;11231;50.746;4.272;2023-09-07T15:20:34;31.90;73.40
22130;DHT22;11231;50.746;4.272;2023-09-07T15:23:00;31.80;73.00
22130;DHT22;11231;50.746;4.272;2023-09-07T15:25:26;31.80;72.00
22130;DHT22;11231;50.746;4.272;2023-09-07T15:27:53;31.80;72.50
22130;DHT22;11231;50.746;4.272;2023-09-07T15:30:19;31.80;71.80
22130;DHT22;11231;50.746;4.272;2023-09-07T15:32:45;31.70;72.80